sensor_id;sensor_type;location;lat;lon;timestamp;pressure;altitude;pressure_sealevel;temperature;humidity
64614;BME280;51025;37.772;-122.432;2022-11-20T00:01:18;101540.40;;;17.93;23.65
64614;BME280;51025;37.772;-122.432;2022-11-20T00:03:47;101541.63;;;17.70;23.44
64614;BME280;51025;37.772;-122.432;2022-11-20T00:06:17;101541.21;;;17.93;23.67
64614;BME280;51025;37.772;-122.432;2022-11-20T00:08:47;101543.26;;;17.73;23.53
64614;BME280;51025;37.772;-122.432;2022-11-20T00:11:18;101547.40;;;18.64;23.41
64614;BME280;51025;37.772;-122.432;2022-11-20T00:13:49;101549.48;;;17.97;23.68
64614;BME280;51025;37.772;-122.432;2022-11-20T00:16:19;101545.38;;;17.35;23.84
64614;BME280;51025;37.772;-122.432;2022-11-20T00:18:48;101547.31;;;17.11;23.83
64614;BME280;51025;37.772;-122.432;2022-11-20T00:21:19;101543.04;;;18.01;23.30
64614;BME280;51025;37.772;-122.432;2022-11-20T00:23:48;101542.84;;;17.42;23.74
64614;BME280;51025;37.772;-122.432;2022-11-20T00:26:18;101538.89;;;18.23;23.72
64614;BME280;51025;37.772;-122.432;2022-11-20T00:28:51;101543.57;;;18.12;23.32
64614;BME280;51025;37.772;-122.432;2022-11-20T00:31:20;101543.24;;;18.02;23.48
64614;BME280;51025;37.772;-122.432;2022-11-20T00:33:49;101543.99;;;17.57;23.36
64614;BME280;51025;37.772;-122.432;2022-11-20T00:36:19;101542.33;;;18.16;23.41
64614;BME280;51025;37.772;-122.432;2022-11-20T00:38:52;101544.28;;;18.10;23.67
64614;BME280;51025;37.772;-122.432;2022-11-20T00:41:20;101545.81;;;17.86;23.75
64614;BME280;51025;37.772;-122.432;2022-11-20T00:43:50;101545.32;;;17.74;23.84
64614;BME280;51025;37.772;-122.432;2022-11-20T00:46:21;101545.53;;;18.02;23.97
64614;BME280;51025;37.772;-122.432;2022-11-20T00:48:50;101549.57;;;17.41;23.92
64614;BME280;51025;37.772;-122.432;2022-11-20T00:51:20;101551.87;;;18.25;23.69
64614;BME280;51025;37.772;-122.432;2022-11-20T00:53:49;101551.22;;;17.41;23.99
64614;BME280;51025;37.772;-122.432;2022-11-20T00:56:19;101553.40;;;17.97;24.02
64614;BME280;51025;37.772;-122.432;2022-11-20T00:58:49;101556.31;;;16.68;24.66
64614;BME280;51025;37.772;-122.432;2022-11-20T01:01:19;101560.43;;;18.52;23.86
64614;BME280;51025;37.772;-122.432;2022-11-20T01:03:50;101561.78;;;17.78;24.02
64614;BME280;51025;37.772;-122.432;2022-11-20T01:06:21;101563.79;;;18.57;23.65
64614;BME280;51025;37.772;-122.432;2022-11-20T01:08:51;101568.67;;;18.55;23.16
64614;BME280;51025;37.772;-122.432;2022-11-20T01:11:23;101569.19;;;19.95;22.62
64614;BME280;51025;37.772;-122.432;2022-11-20T01:13:53;101569.39;;;18.82;22.93
64614;BME280;51025;37.772;-122.432;2022-11-20T01:16:24;101573.79;;;20.08;22.97
64614;BME280;51025;37.772;-122.432;2022-11-20T01:18:56;101574.98;;;19.26;22.80
64614;BME280;51025;37.772;-122.432;2022-11-20T01:21:26;101580.27;;;20.29;22.52
64614;BME280;51025;37.772;-122.432;2022-11-20T01:23:55;101581.65;;;20.49;22.37
64614;BME280;51025;37.772;-122.432;2022-11-20T01:26:26;101583.30;;;20.38;22.45
64614;BME280;51025;37.772;-122.432;2022-11-20T01:28:56;101586.49;;;20.49;22.39
64614;BME280;51025;37.772;-122.432;2022-11-20T01:31:27;101585.22;;;20.61;22.30
64614;BME280;51025;37.772;-122.432;2022-11-20T01:33:58;101585.65;;;20.30;22.27
64614;BME280;51025;37.772;-122.432;2022-11-20T01:36:29;101589.97;;;20.76;22.17
64614;BME280;51025;37.772;-122.432;2022-11-20T01:39:00;101595.13;;;19.07;22.99
64614;BME280;51025;37.772;-122.432;2022-11-20T01:41:31;101598.75;;;20.35;22.20
64614;BME280;51025;37.772;-122.432;2022-11-20T01:44:01;101601.63;;;20.30;22.33
64614;BME280;51025;37.772;-122.432;2022-11-20T01:46:29;101605.84;;;20.78;22.24
64614;BME280;51025;37.772;-122.432;2022-11-20T01:49:01;101607.54;;;20.84;22.21
64614;BME280;51025;37.772;-122.432;2022-11-20T01:51:35;101606.73;;;20.85;22.22
64614;BME280;51025;37.772;-122.432;2022-11-20T01:54:09;101605.32;;;20.66;22.09
64614;BME280;51025;37.772;-122.432;2022-11-20T01:56:41;101605.20;;;20.74;22.05
64614;BME280;51025;37.772;-122.432;2022-11-20T01:59:12;101604.38;;;20.42;22.05
64614;BME280;51025;37.772;-122.432;2022-11-20T02:01:42;101606.51;;;20.98;22.15
64614;BME280;51025;37.772;-122.432;2022-11-20T02:04:10;101606.44;;;20.52;22.03
64614;BME280;51025;37.772;-122.432;2022-11-20T02:06:44;101609.88;;;21.21;22.00
64614;BME280;51025;37.772;-122.432;2022-11-20T02:09:14;101616.31;;;21.12;22.12
64614;BME280;51025;37.772;-122.432;2022-11-20T02:11:44;101615.91;;;21.17;22.08
64614;BME280;51025;37.772;-122.432;2022-11-20T02:14:12;101615.34;;;20.98;21.92
64614;BME280;51025;37.772;-122.432;2022-11-20T02:16:46;101620.74;;;20.92;22.01
64614;BME280;51025;37.772;-122.432;2022-11-20T02:19:22;101621.03;;;20.94;22.00
64614;BME280;51025;37.772;-122.432;2022-11-20T02:21:58;101625.07;;;20.19;21.97
64614;BME280;51025;37.772;-122.432;2022-11-20T02:24:28;101628.44;;;21.35;21.93
64614;BME280;51025;37.772;-122.432;2022-11-20T02:27:00;101632.91;;;20.73;21.89
64614;BME280;51025;37.772;-122.432;2022-11-20T02:29:35;101635.07;;;20.56;21.95
64614;BME280;51025;37.772;-122.432;2022-11-20T02:32:06;101638.78;;;20.69;21.94
64614;BME280;51025;37.772;-122.432;2022-11-20T02:34:34;101638.10;;;21.03;21.98
64614;BME280;51025;37.772;-122.432;2022-11-20T02:37:02;101637.09;;;20.65;22.03
64614;BME280;51025;37.772;-122.432;2022-11-20T02:39:31;101635.33;;;20.69;21.98
64614;BME280;51025;37.772;-122.432;2022-11-20T02:42:01;101639.49;;;20.69;21.99
64614;BME280;51025;37.772;-122.432;2022-11-20T02:44:30;101638.63;;;20.18;22.15
64614;BME280;51025;37.772;-122.432;2022-11-20T02:46:58;101642.73;;;20.23;21.85
64614;BME280;51025;37.772;-122.432;2022-11-20T02:49:27;101644.48;;;20.67;21.84
64614;BME280;51025;37.772;-122.432;2022-11-20T02:51:55;101647.50;;;21.14;21.58
64614;BME280;51025;37.772;-122.432;2022-11-20T02:54:25;101652.21;;;21.11;21.65
64614;BME280;51025;37.772;-122.432;2022-11-20T02:56:54;101659.96;;;20.82;21.85
64614;BME280;51025;37.772;-122.432;2022-11-20T02:59:22;101658.54;;;20.98;21.82
64614;BME280;51025;37.772;-122.432;2022-11-20T03:01:50;101661.04;;;20.87;21.86
64614;BME280;51025;37.772;-122.432;2022-11-20T03:04:19;101661.36;;;21.04;21.69
64614;BME280;51025;37.772;-122.432;2022-11-20T03:06:47;101657.18;;;19.84;22.23
64614;BME280;51025;37.772;-122.432;2022-11-20T03:09:15;101652.36;;;20.99;21.75
64614;BME280;51025;37.772;-122.432;2022-11-20T03:11:44;101655.42;;;21.16;21.60
64614;BME280;51025;37.772;-122.432;2022-11-20T03:14:14;101657.45;;;20.88;21.82
64614;BME280;51025;37.772;-122.432;2022-11-20T03:16:43;101654.23;;;21.10;21.80
64614;BME280;51025;37.772;-122.432;2022-11-20T03:19:12;101654.61;;;21.13;21.86
64614;BME280;51025;37.772;-122.432;2022-11-20T03:21:41;101661.37;;;21.33;21.75
64614;BME280;51025;37.772;-122.432;2022-11-20T03:24:10;101666.30;;;20.93;22.13
64614;BME280;51025;37.772;-122.432;2022-11-20T03:26:39;101667.95;;;21.70;22.02
64614;BME280;51025;37.772;-122.432;2022-11-20T03:29:08;101666.15;;;21.31;21.94
64614;BME280;51025;37.772;-122.432;2022-11-20T03:31:38;101665.15;;;20.88;21.99
64614;BME280;51025;37.772;-122.432;2022-11-20T03:34:08;101666.54;;;21.25;22.04
64614;BME280;51025;37.772;-122.432;2022-11-20T03:36:39;101669.32;;;21.11;22.08
64614;BME280;51025;37.772;-122.432;2022-11-20T03:39:08;101671.17;;;20.60;22.49
64614;BME280;51025;37.772;-122.432;2022-11-20T03:41:38;101673.53;;;20.94;22.17
64614;BME280;51025;37.772;-122.432;2022-11-20T03:44:10;101674.14;;;20.27;22.62
64614;BME280;51025;37.772;-122.432;2022-11-20T03:46:39;101673.96;;;20.46;22.43
64614;BME280;51025;37.772;-122.432;2022-11-20T03:49:07;101677.94;;;20.73;22.21
64614;BME280;51025;37.772;-122.432;2022-11-20T03:51:36;101682.19;;;20.91;22.06
64614;BME280;51025;37.772;-122.432;2022-11-20T03:54:07;101683.41;;;19.98;22.54
64614;BME280;51025;37.772;-122.432;2022-11-20T03:56:37;101685.60;;;20.35;22.40
64614;BME280;51025;37.772;-122.432;2022-11-20T03:59:09;101688.51;;;20.74;22.19
64614;BME280;51025;37.772;-122.432;2022-11-20T04:01:38;101693.60;;;21.04;22.13
64614;BME280;51025;37.772;-122.432;2022-11-20T04:04:07;101695.14;;;19.87;22.92
64614;BME280;51025;37.772;-122.432;2022-11-20T04:06:37;101697.57;;;20.96;22.23
64614;BME280;51025;37.772;-122.432;2022-11-20T04:09:06;101699.97;;;21.00;22.16
64614;BME280;51025;37.772;-122.432;2022-11-20T04:11:36;101697.19;;;20.62;22.53
64614;BME280;51025;37.772;-122.432;2022-11-20T04:14:06;101703.71;;;20.45;22.57
64614;BME280;51025;37.772;-122.432;2022-11-20T04:16:40;101703.21;;;21.08;22.31
64614;BME280;51025;37.772;-122.432;2022-11-20T04:19:11;101706.59;;;20.75;22.59
64614;BME280;51025;37.772;-122.432;2022-11-20T04:21:41;101708.54;;;19.96;23.09
64614;BME280;51025;37.772;-122.432;2022-11-20T04:24:10;101707.30;;;20.85;22.35
64614;BME280;51025;37.772;-122.432;2022-11-20T04:26:39;101705.60;;;20.49;22.56
64614;BME280;51025;37.772;-122.432;2022-11-20T04:29:09;101702.48;;;20.26;22.46
64614;BME280;51025;37.772;-122.432;2022-11-20T04:31:39;101705.40;;;20.56;22.73
64614;BME280;51025;37.772;-122.432;2022-11-20T04:34:07;101701.64;;;20.80;22.98
64614;BME280;51025;37.772;-122.432;2022-11-20T04:36:36;101705.87;;;21.42;23.15
64614;BME280;51025;37.772;-122.432;2022-11-20T04:39:06;101705.39;;;20.99;23.56
64614;BME280;51025;37.772;-122.432;2022-11-20T04:41:35;101709.37;;;21.23;23.43
64614;BME280;51025;37.772;-122.432;2022-11-20T04:44:05;101712.46;;;20.20;24.29
64614;BME280;51025;37.772;-122.432;2022-11-20T04:46:35;101708.84;;;20.66;23.97
64614;BME280;51025;37.772;-122.432;2022-11-20T04:49:04;101714.79;;;20.58;23.41
64614;BME280;51025;37.772;-122.432;2022-11-20T04:51:33;101716.73;;;20.99;23.59
64614;BME280;51025;37.772;-122.432;2022-11-20T04:54:02;101724.30;;;21.08;23.31
64614;BME280;51025;37.772;-122.432;2022-11-20T04:56:31;101728.45;;;20.93;23.56
64614;BME280;51025;37.772;-122.432;2022-11-20T04:59:01;101731.98;;;19.90;24.05
64614;BME280;51025;37.772;-122.432;2022-11-20T05:01:30;101731.34;;;20.58;23.88
64614;BME280;51025;37.772;-122.432;2022-11-20T05:03:58;101734.88;;;19.80;23.83
64614;BME280;51025;37.772;-122.432;2022-11-20T05:06:26;101741.94;;;20.03;23.91
64614;BME280;51025;37.772;-122.432;2022-11-20T05:08:55;101741.99;;;20.17;23.75
64614;BME280;51025;37.772;-122.432;2022-11-20T05:11:23;101744.96;;;19.88;23.93
64614;BME280;51025;37.772;-122.432;2022-11-20T05:13:52;101745.22;;;19.93;23.52
64614;BME280;51025;37.772;-122.432;2022-11-20T05:16:23;101747.24;;;19.45;24.13
64614;BME280;51025;37.772;-122.432;2022-11-20T05:18:53;101751.08;;;19.11;24.19
64614;BME280;51025;37.772;-122.432;2022-11-20T05:21:22;101754.22;;;20.21;24.00
64614;BME280;51025;37.772;-122.432;2022-11-20T05:23:50;101758.70;;;18.88;24.48
64614;BME280;51025;37.772;-122.432;2022-11-20T05:26:20;101761.27;;;19.42;24.24
64614;BME280;51025;37.772;-122.432;2022-11-20T05:28:50;101764.93;;;19.16;24.18
64614;BME280;51025;37.772;-122.432;2022-11-20T05:31:20;101765.81;;;19.51;24.16
64614;BME280;51025;37.772;-122.432;2022-11-20T05:33:49;101764.52;;;19.45;23.77
64614;BME280;51025;37.772;-122.432;2022-11-20T05:36:18;101762.04;;;19.60;23.82
64614;BME280;51025;37.772;-122.432;2022-11-20T05:38:52;101761.96;;;19.57;23.99
64614;BME280;51025;37.772;-122.432;2022-11-20T05:41:21;101764.31;;;18.91;24.24
64614;BME280;51025;37.772;-122.432;2022-11-20T05:43:50;101764.39;;;18.24;24.14
64614;BME280;51025;37.772;-122.432;2022-11-20T05:46:20;101765.47;;;19.67;23.91
64614;BME280;51025;37.772;-122.432;2022-11-20T05:48:48;101763.94;;;18.99;24.07
64614;BME280;51025;37.772;-122.432;2022-11-20T05:51:19;101768.16;;;19.82;24.02
64614;BME280;51025;37.772;-122.432;2022-11-20T05:53:48;101770.06;;;18.78;24.20
64614;BME280;51025;37.772;-122.432;2022-11-20T05:56:19;101768.76;;;19.35;24.26
64614;BME280;51025;37.772;-122.432;2022-11-20T05:58:48;101771.75;;;19.05;24.16
64614;BME280;51025;37.772;-122.432;2022-11-20T06:01:19;101776.42;;;19.22;24.25
64614;BME280;51025;37.772;-122.432;2022-11-20T06:03:49;101776.41;;;18.76;24.27
64614;BME280;51025;37.772;-122.432;2022-11-20T06:06:19;101776.43;;;19.16;24.30
64614;BME280;51025;37.772;-122.432;2022-11-20T06:08:48;101777.92;;;18.70;24.20
64614;BME280;51025;37.772;-122.432;2022-11-20T06:11:17;101779.36;;;18.61;24.43
64614;BME280;51025;37.772;-122.432;2022-11-20T06:13:47;101782.14;;;19.18;24.30
64614;BME280;51025;37.772;-122.432;2022-11-20T06:16:17;101782.06;;;19.13;24.19
64614;BME280;51025;37.772;-122.432;2022-11-20T06:18:47;101785.85;;;19.08;24.27
64614;BME280;51025;37.772;-122.432;2022-11-20T06:21:18;101787.44;;;18.91;24.39
64614;BME280;51025;37.772;-122.432;2022-11-20T06:23:48;101787.85;;;18.88;24.39
64614;BME280;51025;37.772;-122.432;2022-11-20T06:26:19;101785.79;;;18.89;24.31
64614;BME280;51025;37.772;-122.432;2022-11-20T06:28:48;101784.88;;;18.84;24.32
64614;BME280;51025;37.772;-122.432;2022-11-20T06:31:19;101783.19;;;19.01;24.29
64614;BME280;51025;37.772;-122.432;2022-11-20T06:33:49;101783.08;;;18.62;24.45
64614;BME280;51025;37.772;-122.432;2022-11-20T06:36:20;101784.38;;;18.97;24.38
64614;BME280;51025;37.772;-122.432;2022-11-20T06:38:48;101784.32;;;18.25;24.37
64614;BME280;51025;37.772;-122.432;2022-11-20T06:41:20;101785.69;;;18.59;24.49
64614;BME280;51025;37.772;-122.432;2022-11-20T06:43:49;101782.45;;;18.14;24.43
64614;BME280;51025;37.772;-122.432;2022-11-20T06:46:19;101784.67;;;18.12;24.43
64614;BME280;51025;37.772;-122.432;2022-11-20T06:48:49;101782.24;;;18.62;24.38
64614;BME280;51025;37.772;-122.432;2022-11-20T06:51:18;101786.72;;;18.52;24.35
64614;BME280;51025;37.772;-122.432;2022-11-20T06:53:47;101794.43;;;18.62;24.38
64614;BME280;51025;37.772;-122.432;2022-11-20T06:56:16;101794.85;;;18.54;24.34
64614;BME280;51025;37.772;-122.432;2022-11-20T06:58:44;101801.08;;;18.71;24.19
64614;BME280;51025;37.772;-122.432;2022-11-20T07:01:14;101804.16;;;18.43;24.38
64614;BME280;51025;37.772;-122.432;2022-11-20T07:03:43;101802.55;;;18.36;24.38
64614;BME280;51025;37.772;-122.432;2022-11-20T07:06:12;101800.30;;;18.29;24.38
64614;BME280;51025;37.772;-122.432;2022-11-20T07:08:40;101800.31;;;18.59;24.38
64614;BME280;51025;37.772;-122.432;2022-11-20T07:11:11;101802.26;;;18.11;24.70
64614;BME280;51025;37.772;-122.432;2022-11-20T07:13:39;101802.48;;;18.18;24.43
64614;BME280;51025;37.772;-122.432;2022-11-20T07:16:08;101806.64;;;18.58;24.37
64614;BME280;51025;37.772;-122.432;2022-11-20T07:18:37;101809.92;;;18.65;24.22
64614;BME280;51025;37.772;-122.432;2022-11-20T07:21:08;101811.55;;;18.32;24.30
64614;BME280;51025;37.772;-122.432;2022-11-20T07:23:37;101809.82;;;18.39;24.46
64614;BME280;51025;37.772;-122.432;2022-11-20T07:26:07;101809.70;;;18.11;24.42
64614;BME280;51025;37.772;-122.432;2022-11-20T07:28:36;101809.23;;;18.64;24.25
64614;BME280;51025;37.772;-122.432;2022-11-20T07:31:05;101806.71;;;18.33;24.12
64614;BME280;51025;37.772;-122.432;2022-11-20T07:33:34;101808.48;;;18.91;24.22
64614;BME280;51025;37.772;-122.432;2022-11-20T07:36:02;101809.96;;;18.19;24.41
64614;BME280;51025;37.772;-122.432;2022-11-20T07:38:31;101809.50;;;18.03;24.31
64614;BME280;51025;37.772;-122.432;2022-11-20T07:40:59;101808.40;;;17.91;24.43
64614;BME280;51025;37.772;-122.432;2022-11-20T07:43:27;101808.52;;;18.28;24.37
64614;BME280;51025;37.772;-122.432;2022-11-20T07:45:56;101806.33;;;18.14;24.51
64614;BME280;51025;37.772;-122.432;2022-11-20T07:48:24;101808.18;;;18.21;24.44
64614;BME280;51025;37.772;-122.432;2022-11-20T07:50:54;101804.41;;;17.77;24.46
64614;BME280;51025;37.772;-122.432;2022-11-20T07:53:23;101804.89;;;18.48;24.50
64614;BME280;51025;37.772;-122.432;2022-11-20T07:55:52;101809.60;;;17.91;24.65
64614;BME280;51025;37.772;-122.432;2022-11-20T07:58:20;101802.29;;;18.01;24.56
64614;BME280;51025;37.772;-122.432;2022-11-20T08:00:49;101800.97;;;17.53;24.66
64614;BME280;51025;37.772;-122.432;2022-11-20T08:03:18;101797.87;;;17.94;24.31
64614;BME280;51025;37.772;-122.432;2022-11-20T08:05:47;101797.51;;;18.11;24.37
64614;BME280;51025;37.772;-122.432;2022-11-20T08:08:15;101796.93;;;18.47;24.39
64614;BME280;51025;37.772;-122.432;2022-11-20T08:10:43;101805.73;;;17.51;24.59
64614;BME280;51025;37.772;-122.432;2022-11-20T08:13:11;101803.54;;;18.40;24.48
64614;BME280;51025;37.772;-122.432;2022-11-20T08:15:40;101806.15;;;18.10;24.63
64614;BME280;51025;37.772;-122.432;2022-11-20T08:18:11;101807.01;;;17.74;24.60
64614;BME280;51025;37.772;-122.432;2022-11-20T08:20:39;101805.67;;;18.10;24.60
64614;BME280;51025;37.772;-122.432;2022-11-20T08:23:08;101804.75;;;17.70;24.65
64614;BME280;51025;37.772;-122.432;2022-11-20T08:25:37;101805.49;;;18.02;24.65
64614;BME280;51025;37.772;-122.432;2022-11-20T08:28:08;101806.06;;;18.06;24.54
64614;BME280;51025;37.772;-122.432;2022-11-20T08:30:37;101805.79;;;17.89;24.70
64614;BME280;51025;37.772;-122.432;2022-11-20T08:33:07;101800.81;;;18.11;24.51
64614;BME280;51025;37.772;-122.432;2022-11-20T08:35:38;101798.36;;;17.94;24.38
64614;BME280;51025;37.772;-122.432;2022-11-20T08:38:07;101796.68;;;18.34;24.36
64614;BME280;51025;37.772;-122.432;2022-11-20T08:40:35;101800.33;;;17.69;24.88
64614;BME280;51025;37.772;-122.432;2022-11-20T08:43:03;101798.53;;;17.24;24.65
64614;BME280;51025;37.772;-122.432;2022-11-20T08:45:32;101794.05;;;17.85;24.70
64614;BME280;51025;37.772;-122.432;2022-11-20T08:48:01;101792.89;;;17.69;24.87
64614;BME280;51025;37.772;-122.432;2022-11-20T08:50:30;101791.05;;;17.71;24.82
64614;BME280;51025;37.772;-122.432;2022-11-20T08:53:03;101791.63;;;17.16;24.97
64614;BME280;51025;37.772;-122.432;2022-11-20T08:55:32;101790.83;;;17.63;24.85
64614;BME280;51025;37.772;-122.432;2022-11-20T08:58:04;101789.53;;;17.66;24.84
64614;BME280;51025;37.772;-122.432;2022-11-20T09:00:33;101785.25;;;17.68;24.82
64614;BME280;51025;37.772;-122.432;2022-11-20T09:03:02;101784.90;;;17.57;24.74
64614;BME280;51025;37.772;-122.432;2022-11-20T09:05:30;101785.34;;;18.06;24.54
64614;BME280;51025;37.772;-122.432;2022-11-20T09:07:59;101783.36;;;17.90;24.69
64614;BME280;51025;37.772;-122.432;2022-11-20T09:10:28;101786.48;;;17.48;24.82
64614;BME280;51025;37.772;-122.432;2022-11-20T09:12:57;101785.32;;;17.84;24.80
64614;BME280;51025;37.772;-122.432;2022-11-20T09:15:26;101783.33;;;18.22;24.83
64614;BME280;51025;37.772;-122.432;2022-11-20T09:17:56;101783.93;;;16.92;25.05
64614;BME280;51025;37.772;-122.432;2022-11-20T09:20:25;101782.15;;;17.17;25.18
64614;BME280;51025;37.772;-122.432;2022-11-20T09:22:54;101788.62;;;16.69;25.28
64614;BME280;51025;37.772;-122.432;2022-11-20T09:25:23;101791.46;;;17.34;25.34
64614;BME280;51025;37.772;-122.432;2022-11-20T09:27:56;101791.63;;;16.84;25.20
64614;BME280;51025;37.772;-122.432;2022-11-20T09:30:25;101791.89;;;17.34;25.38
64614;BME280;51025;37.772;-122.432;2022-11-20T09:32:54;101791.48;;;17.53;25.25
64614;BME280;51025;37.772;-122.432;2022-11-20T09:35:23;101791.67;;;18.17;25.06
64614;BME280;51025;37.772;-122.432;2022-11-20T09:37:51;101790.63;;;16.97;25.17
64614;BME280;51025;37.772;-122.432;2022-11-20T09:40:21;101795.20;;;17.86;25.33
64614;BME280;51025;37.772;-122.432;2022-11-20T09:42:57;101796.03;;;16.62;25.40
64614;BME280;51025;37.772;-122.432;2022-11-20T09:45:37;101794.17;;;17.28;25.40
64614;BME280;51025;37.772;-122.432;2022-11-20T09:48:20;101794.70;;;17.24;25.50
64614;BME280;51025;37.772;-122.432;2022-11-20T09:50:58;101795.88;;;16.38;25.64
64614;BME280;51025;37.772;-122.432;2022-11-20T09:53:34;101797.79;;;17.50;25.58
64614;BME280;51025;37.772;-122.432;2022-11-20T09:56:04;101802.27;;;17.34;25.36
64614;BME280;51025;37.772;-122.432;2022-11-20T09:58:35;101805.78;;;17.53;25.57
64614;BME280;51025;37.772;-122.432;2022-11-20T10:01:12;101805.65;;;17.92;25.54
64614;BME280;51025;37.772;-122.432;2022-11-20T10:03:50;101805.13;;;17.28;25.76
64614;BME280;51025;37.772;-122.432;2022-11-20T10:06:28;101805.55;;;17.07;25.62
64614;BME280;51025;37.772;-122.432;2022-11-20T10:09:06;101804.84;;;16.98;25.67
64614;BME280;51025;37.772;-122.432;2022-11-20T10:11:51;101804.69;;;16.93;25.76
64614;BME280;51025;37.772;-122.432;2022-11-20T10:14:31;101806.52;;;17.27;25.82
64614;BME280;51025;37.772;-122.432;2022-11-20T10:17:12;101807.59;;;17.57;25.85
64614;BME280;51025;37.772;-122.432;2022-11-20T10:19:56;101804.38;;;16.87;25.77
64614;BME280;51025;37.772;-122.432;2022-11-20T10:22:49;101805.89;;;16.71;25.87
64614;BME280;51025;37.772;-122.432;2022-11-20T10:25:21;101805.91;;;17.12;25.88
64614;BME280;51025;37.772;-122.432;2022-11-20T10:28:19;101804.95;;;16.25;25.99
64614;BME280;51025;37.772;-122.432;2022-11-20T10:30:57;101805.25;;;16.42;26.10
64614;BME280;51025;37.772;-122.432;2022-11-20T10:33:31;101805.70;;;16.75;25.81
64614;BME280;51025;37.772;-122.432;2022-11-20T10:36:08;101805.31;;;16.73;25.87
64614;BME280;51025;37.772;-122.432;2022-11-20T10:38:42;101804.04;;;17.57;25.76
64614;BME280;51025;37.772;-122.432;2022-11-20T10:41:17;101804.76;;;16.88;26.11
64614;BME280;51025;37.772;-122.432;2022-11-20T10:43:53;101805.20;;;16.91;26.05
64614;BME280;51025;37.772;-122.432;2022-11-20T10:46:23;101805.86;;;17.31;25.99
64614;BME280;51025;37.772;-122.432;2022-11-20T10:48:52;101805.37;;;16.51;26.01
64614;BME280;51025;37.772;-122.432;2022-11-20T10:51:34;101802.05;;;16.91;26.30
64614;BME280;51025;37.772;-122.432;2022-11-20T10:54:15;101803.13;;;16.42;26.39
64614;BME280;51025;37.772;-122.432;2022-11-20T10:56:49;101799.46;;;17.07;26.17
64614;BME280;51025;37.772;-122.432;2022-11-20T10:59:35;101799.64;;;16.88;26.21
64614;BME280;51025;37.772;-122.432;2022-11-20T11:02:24;101803.19;;;16.51;26.19
64614;BME280;51025;37.772;-122.432;2022-11-20T11:05:00;101800.00;;;16.41;26.29
64614;BME280;51025;37.772;-122.432;2022-11-20T11:07:36;101799.23;;;16.72;26.48
64614;BME280;51025;37.772;-122.432;2022-11-20T11:10:16;101799.06;;;16.65;26.34
64614;BME280;51025;37.772;-122.432;2022-11-20T11:12:47;101800.38;;;16.69;26.32
64614;BME280;51025;37.772;-122.432;2022-11-20T11:15:26;101803.53;;;17.13;25.97
64614;BME280;51025;37.772;-122.432;2022-11-20T11:17:56;101802.09;;;16.92;25.72
64614;BME280;51025;37.772;-122.432;2022-11-20T11:20:25;101803.13;;;16.86;26.07
64614;BME280;51025;37.772;-122.432;2022-11-20T11:22:56;101800.56;;;16.03;26.15
64614;BME280;51025;37.772;-122.432;2022-11-20T11:25:28;101803.10;;;16.41;26.19
64614;BME280;51025;37.772;-122.432;2022-11-20T11:27:59;101806.32;;;16.19;26.28
64614;BME280;51025;37.772;-122.432;2022-11-20T11:30:39;101808.90;;;16.48;26.40
64614;BME280;51025;37.772;-122.432;2022-11-20T11:33:11;101807.28;;;16.68;26.29
64614;BME280;51025;37.772;-122.432;2022-11-20T11:35:48;101809.92;;;16.60;26.30
64614;BME280;51025;37.772;-122.432;2022-11-20T11:38:32;101808.72;;;16.41;26.38
64614;BME280;51025;37.772;-122.432;2022-11-20T11:41:03;101809.07;;;16.18;26.25
64614;BME280;51025;37.772;-122.432;2022-11-20T11:43:35;101809.37;;;16.59;26.22
64614;BME280;51025;37.772;-122.432;2022-11-20T11:46:20;101812.00;;;16.48;26.27
64614;BME280;51025;37.772;-122.432;2022-11-20T11:48:57;101810.32;;;15.71;26.29
64614;BME280;51025;37.772;-122.432;2022-11-20T11:51:31;101812.77;;;16.58;26.22
64614;BME280;51025;37.772;-122.432;2022-11-20T11:54:01;101809.86;;;16.50;25.88
64614;BME280;51025;37.772;-122.432;2022-11-20T11:56:36;101811.44;;;16.74;25.96
64614;BME280;51025;37.772;-122.432;2022-11-20T11:59:09;101815.90;;;16.16;26.18
64614;BME280;51025;37.772;-122.432;2022-11-20T12:01:46;101814.90;;;16.58;26.06
64614;BME280;51025;37.772;-122.432;2022-11-20T12:04:21;101815.55;;;16.46;26.16
64614;BME280;51025;37.772;-122.432;2022-11-20T12:06:57;101817.83;;;16.27;26.01
64614;BME280;51025;37.772;-122.432;2022-11-20T12:09:34;101815.71;;;16.45;26.14
64614;BME280;51025;37.772;-122.432;2022-11-20T12:12:08;101813.01;;;16.31;25.99
64614;BME280;51025;37.772;-122.432;2022-11-20T12:14:40;101816.67;;;16.65;25.93
64614;BME280;51025;37.772;-122.432;2022-11-20T12:17:12;101815.67;;;16.17;26.10
64614;BME280;51025;37.772;-122.432;2022-11-20T12:19:41;101816.05;;;16.82;25.74
64614;BME280;51025;37.772;-122.432;2022-11-20T12:22:20;101816.30;;;16.98;25.64
64614;BME280;51025;37.772;-122.432;2022-11-20T12:24:57;101819.41;;;16.50;25.71
64614;BME280;51025;37.772;-122.432;2022-11-20T12:27:43;101816.01;;;16.79;25.74
64614;BME280;51025;37.772;-122.432;2022-11-20T12:30:16;101818.20;;;16.22;25.82
64614;BME280;51025;37.772;-122.432;2022-11-20T12:33:00;101820.66;;;16.43;25.94
64614;BME280;51025;37.772;-122.432;2022-11-20T12:35:42;101823.15;;;16.61;25.76
64614;BME280;51025;37.772;-122.432;2022-11-20T12:38:36;101828.55;;;16.69;25.59
64614;BME280;51025;37.772;-122.432;2022-11-20T12:41:14;101828.67;;;16.43;25.51